createdAt,value
2018-06-09T00:00:07.957Z,7.63
2018-06-09T00:02:12.912Z,7.60
2018-06-09T00:04:17.851Z,8.17
2018-06-09T00:06:23.257Z,4.63
2018-06-09T00:08:28.871Z,4.40
2018-06-09T00:10:34.474Z,5.23
2018-06-09T00:12:39.407Z,8.43
2018-06-09T00:14:44.678Z,9.27
2018-06-09T00:16:50.186Z,7.80
2018-06-09T00:18:55.339Z,9.47
2018-06-09T00:21:00.246Z,11.67
2018-06-09T00:23:05.278Z,10.53
2018-06-09T00:25:10.548Z,6.13
2018-06-09T00:27:15.568Z,8.97
2018-06-09T00:29:20.559Z,6.60
2018-06-09T00:31:25.470Z,7.10
2018-06-09T00:33:30.943Z,9.00
2018-06-09T00:35:36.390Z,8.10
2018-06-09T00:37:41.720Z,11.03
2018-06-09T00:39:46.607Z,10.47
2018-06-09T00:41:51.556Z,8.37
2018-06-09T00:43:56.460Z,8.80
2018-06-09T00:46:01.385Z,5.53
2018-06-09T00:48:06.307Z,7.90
2018-06-09T00:50:11.286Z,10.87
2018-06-09T00:52:16.259Z,7.97
2018-06-09T00:54:21.231Z,9.70
2018-06-09T00:56:37.504Z,7.03
2018-06-09T00:58:42.455Z,14.17
2018-06-09T01:00:47.404Z,7.97
2018-06-09T01:02:52.325Z,7.80
2018-06-09T01:04:57.266Z,9.63
2018-06-09T01:07:02.707Z,10.07
2018-06-09T01:09:08.810Z,8.27
2018-06-09T01:11:13.695Z,9.97
2018-06-09T01:13:18.700Z,14.10
2018-06-09T01:15:23.606Z,14.90
2018-06-09T01:17:28.645Z,13.10
2018-06-09T01:19:33.724Z,20.30
2018-06-09T01:21:38.746Z,10.23
2018-06-09T01:23:43.793Z,9.43
2018-06-09T01:25:48.711Z,11.57
2018-06-09T01:27:53.718Z,13.87
2018-06-09T01:29:58.790Z,8.33
2018-06-09T01:32:03.799Z,11.10
2018-06-09T01:34:08.707Z,11.30
2018-06-09T01:36:13.608Z,12.80
2018-06-09T01:38:18.619Z,11.27
2018-06-09T01:40:23.596Z,9.33
2018-06-09T01:42:28.666Z,9.57
2018-06-09T01:44:33.195Z,14.23
2018-06-09T01:46:38.195Z,8.63
2018-06-09T01:48:43.208Z,9.13
2018-06-09T01:50:48.274Z,10.47
2018-06-09T01:52:54.276Z,10.03
2018-06-09T01:54:59.914Z,11.80
2018-06-09T01:57:05.135Z,14.57
2018-06-09T01:59:10.165Z,10.73
2018-06-09T02:01:15.128Z,13.43
2018-06-09T02:03:20.064Z,11.40
2018-06-09T02:05:25.014Z,11.87
2018-06-09T02:07:30.356Z,12.50
2018-06-09T02:09:35.292Z,10.90
2018-06-09T02:11:40.299Z,9.77
2018-06-09T02:13:46.243Z,12.70
2018-06-09T02:15:51.166Z,9.20
2018-06-09T02:17:56.159Z,14.57
2018-06-09T02:20:01.216Z,15.40
2018-06-09T02:22:06.144Z,12.67
2018-06-09T02:24:11.134Z,17.93
2018-06-09T02:26:17.139Z,12.27
2018-06-09T02:28:22.030Z,14.60
2018-06-09T02:30:26.982Z,10.93
2018-06-09T02:32:32.638Z,10.77
2018-06-09T02:34:37.595Z,8.87
2018-06-09T02:36:42.564Z,9.50
2018-06-09T02:38:47.559Z,12.13
2018-06-09T02:40:52.535Z,12.60
2018-06-09T02:42:57.436Z,12.03
2018-06-09T02:45:02.611Z,16.43
2018-06-09T02:47:07.659Z,10.63
2018-06-09T02:49:14.801Z,14.90
2018-06-09T02:51:19.977Z,10.93
2018-06-09T02:53:25.297Z,17.83
2018-06-09T02:55:30.306Z,13.37
2018-06-09T02:57:35.830Z,12.87
2018-06-09T02:59:40.796Z,13.97
2018-06-09T03:01:45.767Z,11.80
2018-06-09T03:03:51.606Z,15.20
2018-06-09T03:05:57.025Z,12.57
2018-06-09T03:08:02.018Z,14.37
2018-06-09T03:10:07.880Z,18.73
2018-06-09T03:12:12.851Z,14.47
2018-06-09T03:14:17.830Z,18.50
2018-06-09T03:16:22.775Z,11.30
2018-06-09T03:18:27.757Z,12.20
2018-06-09T03:20:32.959Z,11.73
2018-06-09T03:22:38.263Z,11.20
2018-06-09T03:24:43.509Z,15.20
2018-06-09T03:26:48.483Z,11.80
2018-06-09T03:28:53.690Z,17.57
2018-06-09T03:30:58.628Z,12.30
2018-06-09T03:33:03.178Z,16.23
2018-06-09T03:35:08.070Z,11.80
2018-06-09T03:37:13.653Z,14.50
2018-06-09T03:39:18.687Z,14.50
2018-06-09T03:41:23.675Z,15.50
2018-06-09T03:43:28.695Z,16.80
2018-06-09T03:45:33.703Z,16.60
2018-06-09T03:47:38.659Z,15.67
2018-06-09T03:49:45.847Z,12.87
2018-06-09T03:51:50.791Z,15.53
2018-06-09T03:53:56.518Z,15.50
2018-06-09T03:56:01.551Z,12.57
2018-06-09T03:58:06.508Z,14.07
2018-06-09T04:00:11.832Z,21.10
2018-06-09T04:02:17.027Z,18.30
2018-06-09T04:04:22.081Z,19.13
2018-06-09T04:06:28.133Z,15.83
2018-06-09T04:08:33.344Z,18.23
2018-06-09T04:10:40.696Z,17.20
2018-06-09T04:12:46.414Z,14.17
2018-06-09T04:14:52.833Z,14.60
2018-06-09T04:16:57.780Z,12.03
2018-06-09T04:19:03.496Z,12.37
2018-06-09T04:21:08.654Z,17.70
2018-06-09T04:23:13.799Z,17.37
2018-06-09T04:25:18.850Z,16.20
2018-06-09T04:27:23.912Z,17.87
2018-06-09T04:29:28.925Z,19.97
2018-06-09T04:31:34.012Z,18.87
2018-06-09T04:33:38.937Z,15.67
2018-06-09T04:35:44.246Z,16.77
2018-06-09T04:37:50.306Z,19.40
2018-06-09T04:39:55.503Z,17.63
2018-06-09T04:42:01.098Z,15.67
2018-06-09T04:44:06.195Z,15.67
2018-06-09T04:46:11.615Z,18.97
2018-06-09T04:48:16.989Z,19.90
2018-06-09T04:50:22.012Z,22.50
2018-06-09T04:52:27.145Z,17.33
2018-06-09T04:54:32.264Z,18.20
2018-06-09T04:56:37.607Z,17.03
2018-06-09T04:58:43.528Z,17.27
2018-06-09T05:00:48.728Z,19.33
2018-06-09T05:02:53.682Z,18.43
2018-06-09T05:04:58.603Z,18.40
2018-06-09T05:07:03.734Z,20.30
2018-06-09T05:09:09.257Z,19.07
2018-06-09T05:11:14.914Z,20.03
2018-06-09T05:13:19.891Z,16.97
2018-06-09T05:15:25.431Z,16.10
2018-06-09T05:17:30.351Z,20.03
2018-06-09T05:19:35.329Z,18.03
2018-06-09T05:21:40.332Z,20.20
2018-06-09T05:23:45.325Z,23.70
2018-06-09T05:25:50.380Z,20.13
2018-06-09T05:27:54.799Z,19.10
2018-06-09T05:29:59.914Z,18.07
2018-06-09T05:32:04.921Z,20.23
2018-06-09T05:34:09.866Z,19.40
2018-06-09T05:36:14.905Z,16.80
2018-06-09T05:38:19.385Z,18.07
2018-06-09T05:40:24.252Z,19.87
2018-06-09T05:42:29.337Z,22.27
2018-06-09T05:44:34.295Z,18.63
2018-06-09T05:46:39.572Z,21.80
2018-06-09T05:48:44.567Z,17.73
2018-06-09T05:50:49.620Z,18.70
2018-06-09T05:52:54.995Z,18.50
2018-06-09T05:54:59.945Z,20.90
2018-06-09T05:57:04.890Z,18.87
2018-06-09T05:59:09.884Z,18.17
2018-06-09T06:01:14.811Z,17.60
2018-06-09T06:03:19.943Z,18.77
2018-06-09T06:05:24.924Z,24.13
2018-06-09T06:07:30.616Z,16.97
2018-06-09T06:09:35.585Z,20.43
2018-06-09T06:11:40.579Z,24.03
2018-06-09T06:13:45.529Z,19.90
2018-06-09T06:15:50.522Z,24.53
2018-06-09T06:17:55.530Z,18.67
2018-06-09T06:20:00.733Z,20.20
2018-06-09T06:22:05.699Z,19.53
2018-06-09T06:24:10.694Z,19.43
2018-06-09T06:26:15.639Z,21.83
2018-06-09T06:28:20.585Z,21.07
2018-06-09T06:30:25.552Z,24.73
2018-06-09T06:32:30.496Z,19.40
2018-06-09T06:34:35.523Z,19.00
2018-06-09T06:36:40.535Z,22.53
2018-06-09T06:38:45.502Z,20.80
2018-06-09T06:40:50.461Z,20.20
2018-06-09T06:42:55.466Z,21.37
2018-06-09T06:45:01.466Z,19.90
2018-06-09T06:47:06.561Z,19.87
2018-06-09T06:49:11.551Z,18.87
2018-06-09T06:51:16.537Z,16.70
2018-06-09T06:53:21.616Z,22.87
2018-06-09T06:55:26.534Z,22.37
2018-06-09T06:57:31.516Z,19.07
2018-06-09T06:59:36.548Z,18.03
2018-06-09T07:01:42.191Z,20.57
2018-06-09T07:03:49.087Z,19.00
2018-06-09T07:05:54.887Z,20.03
2018-06-09T07:08:00.049Z,21.33
2018-06-09T07:10:07.074Z,16.07
2018-06-09T07:12:13.222Z,19.87
2018-06-09T07:14:19.527Z,15.43
2018-06-09T07:16:24.471Z,18.77
2018-06-09T07:18:32.203Z,19.27
2018-06-09T07:20:37.970Z,18.23
2018-06-09T07:22:45.515Z,17.90
2018-06-09T07:24:50.608Z,19.17
2018-06-09T07:26:56.814Z,18.67
2018-06-09T07:29:02.810Z,15.50
2018-06-09T07:31:08.871Z,14.63
2018-06-09T07:33:16.310Z,19.90
2018-06-09T07:35:22.068Z,16.97
2018-06-09T07:37:27.605Z,14.97
2018-06-09T07:39:33.984Z,14.03
2018-06-09T07:41:40.098Z,13.73
2018-06-09T07:43:46.361Z,18.70
2018-06-09T07:45:51.759Z,17.33
2018-06-09T07:47:57.689Z,15.03
2018-06-09T07:50:03.831Z,13.50
2018-06-09T07:52:08.811Z,14.63
2018-06-09T07:54:14.395Z,16.70
2018-06-09T07:56:20.726Z,12.10
2018-06-09T07:58:27.207Z,15.97
2018-06-09T08:00:33.012Z,14.30
2018-06-09T08:02:38.689Z,13.17
2018-06-09T08:04:44.111Z,15.20
2018-06-09T08:06:49.861Z,14.33
2018-06-09T08:08:55.496Z,15.87
2018-06-09T08:11:01.079Z,7.83
2018-06-09T08:13:06.924Z,13.60
2018-06-09T08:15:12.815Z,13.77
2018-06-09T08:17:18.340Z,16.83
2018-06-09T08:19:24.867Z,14.20
2018-06-09T08:21:31.623Z,13.93
2018-06-09T08:23:37.300Z,15.90
2018-06-09T08:25:42.362Z,15.40
2018-06-09T08:27:48.458Z,17.57
2018-06-09T08:29:54.883Z,14.83
2018-06-09T08:32:00.525Z,13.70
2018-06-09T08:34:06.707Z,14.53
2018-06-09T08:36:12.866Z,13.20
2018-06-09T08:38:18.646Z,14.13
2018-06-09T08:40:23.572Z,13.20
2018-06-09T08:42:28.535Z,14.00
2018-06-09T08:44:34.506Z,11.93
2018-06-09T08:46:41.923Z,14.00
2018-06-09T08:48:47.012Z,14.27
2018-06-09T08:50:53.004Z,14.20
2018-06-09T08:52:58.036Z,13.30
2018-06-09T08:55:03.075Z,12.33
2018-06-09T08:57:08.406Z,16.97
2018-06-09T08:59:15.134Z,16.93
2018-06-09T09:01:20.252Z,15.10
2018-06-09T09:03:25.348Z,12.93
2018-06-09T09:05:30.531Z,12.73
2018-06-09T09:07:35.764Z,9.90
2018-06-09T09:09:40.914Z,10.47
2018-06-09T09:11:46.196Z,12.03
2018-06-09T09:13:51.337Z,12.20
2018-06-09T09:15:57.657Z,15.63
2018-06-09T09:18:02.815Z,12.30
2018-06-09T09:20:08.444Z,12.13
2018-06-09T09:22:13.826Z,15.23
2018-06-09T09:24:18.985Z,14.10
2018-06-09T09:26:25.131Z,15.37
2018-06-09T09:28:30.742Z,12.03
2018-06-09T09:30:36.066Z,11.30
2018-06-09T09:32:41.067Z,13.30
2018-06-09T09:34:46.716Z,14.87
2018-06-09T09:36:51.627Z,15.07
2018-06-09T09:38:57.115Z,17.13
2018-06-09T09:41:03.264Z,17.20
2018-06-09T09:43:08.333Z,14.07
2018-06-09T09:45:13.940Z,10.43
2018-06-09T09:47:20.023Z,14.43
2018-06-09T09:49:25.002Z,13.50
2018-06-09T09:51:29.977Z,11.33
2018-06-09T09:53:34.981Z,9.67
2018-06-09T09:55:39.967Z,12.13
2018-06-09T09:57:58.998Z,11.83
2018-06-09T10:00:04.003Z,12.47
2018-06-09T10:02:09.030Z,14.90
2018-06-09T10:04:13.993Z,12.13
2018-06-09T10:06:18.939Z,11.83
2018-06-09T10:08:23.914Z,7.93
2018-06-09T10:10:28.892Z,12.67
2018-06-09T10:12:33.811Z,12.87
2018-06-09T10:14:39.165Z,11.87
2018-06-09T10:16:44.085Z,9.57
2018-06-09T10:18:49.050Z,11.33
2018-06-09T10:20:54.191Z,12.07
2018-06-09T10:22:59.174Z,12.23
2018-06-09T10:25:04.171Z,10.30
2018-06-09T10:27:09.199Z,9.03
2018-06-09T10:29:14.196Z,10.93
2018-06-09T10:31:19.132Z,10.33
2018-06-09T10:33:24.054Z,12.87
2018-06-09T10:35:29.024Z,9.27
2018-06-09T10:37:33.437Z,10.30
2018-06-09T10:39:38.202Z,11.03
2018-06-09T10:41:43.133Z,10.43
2018-06-09T10:43:48.105Z,11.50
2018-06-09T10:45:53.011Z,10.40
2018-06-09T10:47:58.019Z,12.67
2018-06-09T10:50:03.241Z,10.83
2018-06-09T10:52:08.510Z,15.20
2018-06-09T10:54:13.627Z,11.40
2018-06-09T10:56:18.547Z,10.17
2018-06-09T10:58:23.541Z,9.40
2018-06-09T11:00:28.785Z,12.00
2018-06-09T11:02:34.944Z,10.30
2018-06-09T11:04:40.642Z,11.97
2018-06-09T11:06:45.615Z,10.17
2018-06-09T11:08:50.570Z,9.63
2018-06-09T11:10:55.525Z,12.73
2018-06-09T11:13:01.034Z,11.07
2018-06-09T11:15:07.192Z,13.08
2018-06-09T11:17:12.518Z,14.13
2018-06-09T11:19:17.427Z,11.17
2018-06-09T11:21:22.385Z,12.07
2018-06-09T11:23:28.119Z,13.20
2018-06-09T11:25:33.198Z,11.77
2018-06-09T11:27:39.437Z,13.03
2018-06-09T11:29:45.068Z,12.20
2018-06-09T11:31:50.079Z,9.40
2018-06-09T11:33:56.327Z,10.17
2018-06-09T11:36:02.154Z,12.27
2018-06-09T11:38:07.152Z,11.87
2018-06-09T11:40:12.066Z,9.87
2018-06-09T11:42:17.111Z,11.53
2018-06-09T11:44:22.106Z,11.83
2018-06-09T11:46:27.120Z,12.27
2018-06-09T11:48:33.049Z,13.00
2018-06-09T11:50:37.967Z,11.97
2018-06-09T11:52:42.928Z,10.40
2018-06-09T11:54:47.919Z,12.23
2018-06-09T11:56:52.845Z,10.93
2018-06-09T11:58:57.866Z,11.27
2018-06-09T12:01:02.808Z,17.73
2018-06-09T12:03:07.742Z,11.23
2018-06-09T12:05:12.786Z,11.07
2018-06-09T12:07:17.264Z,9.63
2018-06-09T12:09:22.104Z,11.67
2018-06-09T12:11:27.103Z,13.77
2018-06-09T12:13:44.095Z,11.73
2018-06-09T12:15:49.876Z,8.67
2018-06-09T12:17:55.004Z,12.57
2018-06-09T12:20:00.457Z,10.90
2018-06-09T12:22:06.173Z,15.20
2018-06-09T12:24:12.003Z,10.97
2018-06-09T12:26:17.219Z,13.63
2018-06-09T12:28:22.679Z,10.73
2018-06-09T12:30:27.795Z,9.07
2018-06-09T12:32:35.057Z,10.50
2018-06-09T12:34:40.423Z,17.80
2018-06-09T12:36:44.950Z,19.47
2018-06-09T12:38:50.242Z,12.53
2018-06-09T12:40:55.286Z,9.83
2018-06-09T12:43:00.231Z,12.57
2018-06-09T12:45:05.475Z,11.67
2018-06-09T12:47:10.616Z,10.43
2018-06-09T12:49:16.153Z,14.30
2018-06-09T12:51:21.429Z,10.90
2018-06-09T12:53:28.144Z,9.40
2018-06-09T12:55:34.746Z,14.47
2018-06-09T12:57:40.413Z,10.03
2018-06-09T12:59:45.587Z,12.13
2018-06-09T13:01:50.662Z,11.47
2018-06-09T13:03:55.907Z,10.13
2018-06-09T13:06:00.956Z,9.70
2018-06-09T13:08:05.993Z,10.23
2018-06-09T13:10:11.105Z,13.13
2018-06-09T13:12:16.012Z,10.80
2018-06-09T13:14:21.222Z,7.73
2018-06-09T13:16:26.130Z,13.10
2018-06-09T13:18:31.098Z,14.07
2018-06-09T13:20:36.074Z,11.93
2018-06-09T13:22:41.050Z,12.67
2018-06-09T13:24:46.085Z,11.83
2018-06-09T13:26:50.996Z,9.47
2018-06-09T13:28:56.001Z,12.43
2018-06-09T13:31:00.906Z,11.37
2018-06-09T13:33:06.196Z,10.97
2018-06-09T13:35:11.126Z,10.40
2018-06-09T13:37:16.027Z,11.17
2018-06-09T13:39:21.461Z,10.20
2018-06-09T13:41:26.917Z,9.70
2018-06-09T13:43:31.906Z,11.17
2018-06-09T13:45:36.969Z,10.80
2018-06-09T13:47:41.986Z,10.33
2018-06-09T13:49:47.002Z,11.80
2018-06-09T13:51:52.929Z,9.13
2018-06-09T13:53:57.909Z,10.27
2018-06-09T13:56:03.026Z,10.63
2018-06-09T13:58:08.466Z,13.07
2018-06-09T14:00:13.409Z,12.73
2018-06-09T14:02:18.399Z,10.17
2018-06-09T14:04:23.534Z,9.77
2018-06-09T14:06:28.499Z,9.33
2018-06-09T14:08:33.439Z,8.70
2018-06-09T14:10:38.390Z,9.67
2018-06-09T14:12:43.350Z,8.47
2018-06-09T14:14:48.322Z,12.87
2018-06-09T14:16:53.311Z,9.83
2018-06-09T14:18:58.215Z,14.40
2018-06-09T14:21:03.194Z,10.37
2018-06-09T14:23:08.191Z,10.17
2018-06-09T14:25:13.110Z,13.50
2018-06-09T14:27:18.094Z,11.80
2018-06-09T14:29:23.115Z,8.10
2018-06-09T14:31:28.055Z,14.47
2018-06-09T14:33:33.363Z,10.97
2018-06-09T14:35:38.281Z,12.73
2018-06-09T14:37:43.168Z,11.47
2018-06-09T14:39:48.543Z,11.90
2018-06-09T14:41:53.524Z,9.07
2018-06-09T14:43:58.607Z,8.23
2018-06-09T14:46:03.579Z,11.67
2018-06-09T14:48:08.502Z,11.43
2018-06-09T14:50:13.458Z,8.60
2018-06-09T14:52:18.482Z,9.30
2018-06-09T14:54:23.419Z,9.83
2018-06-09T14:56:28.900Z,9.77
2018-06-09T14:58:34.185Z,8.63
2018-06-09T15:00:39.466Z,10.10
2018-06-09T15:02:44.902Z,12.37
2018-06-09T15:04:50.057Z,10.40
2018-06-09T15:06:55.125Z,10.50
2018-06-09T15:09:00.056Z,11.90
2018-06-09T15:11:04.548Z,13.10
2018-06-09T15:13:09.394Z,10.87
2018-06-09T15:15:14.390Z,8.87
2018-06-09T15:17:19.345Z,8.47
2018-06-09T15:19:24.423Z,9.70
2018-06-09T15:21:30.409Z,10.50
2018-06-09T15:23:35.426Z,10.90
2018-06-09T15:25:40.848Z,7.97
2018-06-09T15:27:46.871Z,8.90
2018-06-09T15:29:52.321Z,13.43
2018-06-09T15:31:57.742Z,7.70
2018-06-09T15:34:03.030Z,7.30
2018-06-09T15:36:08.088Z,11.40
2018-06-09T15:38:13.142Z,6.93
2018-06-09T15:40:18.936Z,9.73
2018-06-09T15:42:23.787Z,10.10
2018-06-09T15:44:28.745Z,10.93
2018-06-09T15:46:34.037Z,10.53
2018-06-09T15:48:39.951Z,8.17
2018-06-09T15:50:45.767Z,8.73
2018-06-09T15:52:50.699Z,9.87
2018-06-09T15:54:55.598Z,10.23
2018-06-09T15:57:00.580Z,11.40
2018-06-09T15:59:05.549Z,10.73
2018-06-09T16:01:11.478Z,8.73
2018-06-09T16:03:16.518Z,12.20
2018-06-09T16:05:21.822Z,8.83
2018-06-09T16:07:26.935Z,13.80
2018-06-09T16:09:31.711Z,10.33
2018-06-09T16:11:36.499Z,9.57
2018-06-09T16:13:41.471Z,7.97
2018-06-09T16:15:46.876Z,7.37
2018-06-09T16:17:52.237Z,9.93
2018-06-09T16:19:57.589Z,7.87
2018-06-09T16:22:02.595Z,12.43
2018-06-09T16:24:08.778Z,8.37
2018-06-09T16:26:15.273Z,11.00
2018-06-09T16:28:20.276Z,12.23
2018-06-09T16:30:27.205Z,8.63
2018-06-09T16:32:38.015Z,10.20
2018-06-09T16:34:49.675Z,7.53
2018-06-09T16:37:01.086Z,7.73
2018-06-09T16:39:14.108Z,8.57
2018-06-09T16:41:21.483Z,7.47
2018-06-09T16:43:26.610Z,7.07
2018-06-09T16:45:31.601Z,7.03
2018-06-09T16:47:36.558Z,8.53
2018-06-09T16:52:13.982Z,9.33
2018-06-09T16:54:19.003Z,9.53
2018-06-09T16:56:23.944Z,10.90
2018-06-09T16:58:28.874Z,6.03
2018-06-09T17:00:33.842Z,5.50
2018-06-09T17:02:38.875Z,8.07
2018-06-09T17:04:43.780Z,6.03
2018-06-09T17:06:48.659Z,6.93
2018-06-09T17:08:53.775Z,8.20
2018-06-09T17:10:58.690Z,8.23
2018-06-09T17:13:03.614Z,7.50
2018-06-09T17:15:08.594Z,7.57
2018-06-09T17:17:13.534Z,6.80
2018-06-09T17:19:18.701Z,5.20
2018-06-09T17:21:23.667Z,6.83
2018-06-09T17:23:28.542Z,8.43
2018-06-09T17:25:33.644Z,6.57
2018-06-09T17:27:38.628Z,7.37
2018-06-09T17:29:43.605Z,5.80
2018-06-09T17:31:48.612Z,6.87
2018-06-09T17:33:53.514Z,6.37
2018-06-09T17:35:58.476Z,5.50
2018-06-09T17:38:03.426Z,7.27
2018-06-09T17:40:08.404Z,6.60
2018-06-09T17:42:13.372Z,5.00
2018-06-09T17:44:18.334Z,7.87
2018-06-09T17:46:23.327Z,7.73
2018-06-09T17:48:28.351Z,9.83
2018-06-09T17:50:33.283Z,7.40
2018-06-09T17:52:38.307Z,4.90
2018-06-09T17:54:43.322Z,5.87
2018-06-09T17:56:48.279Z,4.77
2018-06-09T17:58:53.308Z,7.13
2018-06-09T18:00:58.344Z,7.77
2018-06-09T18:03:03.320Z,11.07
2018-06-09T18:05:08.291Z,4.97
2018-06-09T18:07:13.331Z,5.60
2018-06-09T18:09:18.273Z,7.97
2018-06-09T18:11:23.180Z,7.13
2018-06-09T18:13:28.235Z,5.40
2018-06-09T18:15:33.229Z,7.20
2018-06-09T18:17:38.200Z,6.23
2018-06-09T18:19:43.120Z,5.23
2018-06-09T18:21:48.967Z,7.03
2018-06-09T18:23:53.878Z,8.10
2018-06-09T18:25:58.935Z,5.53
2018-06-09T18:28:03.947Z,6.17
2018-06-09T18:30:08.903Z,5.77
2018-06-09T18:32:13.959Z,5.03
2018-06-09T18:34:18.415Z,9.10
2018-06-09T18:36:23.293Z,7.77
2018-06-09T18:38:28.305Z,8.90
2018-06-09T18:40:33.288Z,7.67
2018-06-09T18:42:38.219Z,5.70
2018-06-09T18:44:43.279Z,5.60
2018-06-09T18:46:48.187Z,7.00
2018-06-09T18:48:53.138Z,6.83
2018-06-09T18:50:58.121Z,6.90
2018-06-09T18:53:03.104Z,6.57
2018-06-09T18:55:08.115Z,7.00
2018-06-09T18:57:13.119Z,11.67
2018-06-09T18:59:18.083Z,5.77
2018-06-09T19:01:22.950Z,8.17
2018-06-09T19:03:27.937Z,6.23
2018-06-09T19:05:32.898Z,5.60
2018-06-09T19:07:37.873Z,8.17
2018-06-09T19:09:42.820Z,12.90
2018-06-09T19:11:47.798Z,6.53
2018-06-09T19:13:52.716Z,6.27
2018-06-09T19:15:57.991Z,7.83
2018-06-09T19:18:02.939Z,6.60
2018-06-09T19:20:07.917Z,7.43
2018-06-09T19:22:13.510Z,6.23
2018-06-09T19:24:18.348Z,5.57
2018-06-09T19:26:23.357Z,5.47
2018-06-09T19:28:28.349Z,6.47
2018-06-09T19:30:33.628Z,8.87
2018-06-09T19:32:38.571Z,9.57
2018-06-09T19:34:43.683Z,6.27
2018-06-09T19:36:48.641Z,8.13
2018-06-09T19:38:53.625Z,11.43
2018-06-09T19:40:58.571Z,8.37
2018-06-09T19:43:03.530Z,6.87
2018-06-09T19:45:09.576Z,6.50
2018-06-09T19:47:15.628Z,8.00
2018-06-09T19:49:21.025Z,10.30
2018-06-09T19:51:26.007Z,6.37
2018-06-09T19:53:30.928Z,9.73
2018-06-09T19:55:35.865Z,8.60
2018-06-09T19:57:41.075Z,11.27
2018-06-09T19:59:45.986Z,7.57
2018-06-09T20:01:50.934Z,9.87
2018-06-09T20:03:55.963Z,8.57
2018-06-09T20:06:00.906Z,7.80
2018-06-09T20:08:06.726Z,9.07
2018-06-09T20:10:12.689Z,9.50
2018-06-09T20:12:18.603Z,6.97
2018-06-09T20:14:25.338Z,7.73
2018-06-09T20:16:32.501Z,9.23
2018-06-09T20:18:38.542Z,9.90
2018-06-09T20:20:44.561Z,9.73
2018-06-09T20:22:49.886Z,9.97
2018-06-09T20:24:55.980Z,9.20
2018-06-09T20:27:02.636Z,6.87
2018-06-09T20:29:07.759Z,9.03
2018-06-09T20:31:12.904Z,10.17
2018-06-09T20:33:18.204Z,12.30
2018-06-09T20:35:23.526Z,9.80
2018-06-09T20:37:28.968Z,12.70
2018-06-09T20:39:34.070Z,8.03
2018-06-09T20:41:39.274Z,12.13
2018-06-09T20:43:44.518Z,10.40
2018-06-09T20:45:49.745Z,18.93
2018-06-09T20:47:54.741Z,9.93
2018-06-09T20:50:00.596Z,9.97
2018-06-09T20:52:05.583Z,12.40
2018-06-09T20:54:10.872Z,11.73
2018-06-09T20:56:15.992Z,13.63
2018-06-09T20:58:20.910Z,10.27
2018-06-09T21:00:26.173Z,10.13
2018-06-09T21:02:31.125Z,11.63
2018-06-09T21:04:36.224Z,11.93
2018-06-09T21:06:41.782Z,9.93
2018-06-09T21:08:46.703Z,8.83
2018-06-09T21:10:52.012Z,9.47
2018-06-09T21:12:57.466Z,10.00
2018-06-09T21:15:02.857Z,13.97
2018-06-09T21:17:07.795Z,10.33
2018-06-09T21:19:12.728Z,14.73
2018-06-09T21:21:17.933Z,10.60
2018-06-09T21:23:23.029Z,13.13
2018-06-09T21:25:28.047Z,12.30
2018-06-09T21:27:38.158Z,12.70
2018-06-09T21:29:48.827Z,9.03
2018-06-09T21:31:54.247Z,18.50
2018-06-09T21:34:10.318Z,11.83
2018-06-09T21:36:19.307Z,13.43
2018-06-09T21:38:28.282Z,14.17
2018-06-09T21:40:38.480Z,11.77
2018-06-09T21:42:44.698Z,12.53
2018-06-09T21:45:08.407Z,12.27
2018-06-09T21:47:13.339Z,17.40
2018-06-09T21:49:18.743Z,11.50
2018-06-09T21:51:23.794Z,13.47
2018-06-09T21:53:28.798Z,13.07
2018-06-09T21:55:38.819Z,11.33
2018-06-09T21:57:44.549Z,14.60
2018-06-09T21:59:51.282Z,13.07
2018-06-09T22:01:56.502Z,11.13
2018-06-09T22:04:02.962Z,9.77
2018-06-09T22:06:08.103Z,12.53
2018-06-09T22:08:13.454Z,11.80
2018-06-09T22:10:19.117Z,15.13
2018-06-09T22:12:24.954Z,13.90
2018-06-09T22:14:30.771Z,10.53
2018-06-09T22:16:35.926Z,13.20
2018-06-09T22:18:41.814Z,12.50
2018-06-09T22:20:46.914Z,11.87
2018-06-09T22:22:53.500Z,13.27
2018-06-09T22:24:59.638Z,13.40
2018-06-09T22:27:05.406Z,13.13
2018-06-09T22:29:10.997Z,14.63
2018-06-09T22:31:17.115Z,20.47
2018-06-09T22:33:22.557Z,12.00
2018-06-09T22:35:28.366Z,13.07
2018-06-09T22:37:33.345Z,13.23
2018-06-09T22:39:39.250Z,15.07
2018-06-09T22:41:44.459Z,13.73
2018-06-09T22:43:49.804Z,14.47
2018-06-09T22:45:55.682Z,15.40
2018-06-09T22:48:00.680Z,14.00
2018-06-09T22:50:06.866Z,17.27
2018-06-09T22:52:11.758Z,10.20
2018-06-09T22:54:16.714Z,17.10
2018-06-09T22:56:21.747Z,13.17
2018-06-09T22:58:26.772Z,12.40
2018-06-09T23:00:38.060Z,13.70
2018-06-09T23:02:43.091Z,11.57
2018-06-09T23:04:48.388Z,16.57
2018-06-09T23:06:54.263Z,12.57
2018-06-09T23:08:59.236Z,14.67
2018-06-09T23:11:04.272Z,15.47
2018-06-09T23:13:09.224Z,10.37
2018-06-09T23:15:14.102Z,12.17
2018-06-09T23:17:19.046Z,16.40
2018-06-09T23:19:24.047Z,13.40
2018-06-09T23:21:29.063Z,12.00
2018-06-09T23:23:34.020Z,15.20
2018-06-09T23:25:38.971Z,15.27
2018-06-09T23:27:44.849Z,14.93
2018-06-09T23:29:49.778Z,11.27
2018-06-09T23:31:54.721Z,14.30
2018-06-09T23:34:01.159Z,14.17
2018-06-09T23:36:06.145Z,16.33
2018-06-09T23:38:11.294Z,14.53
2018-06-09T23:40:16.306Z,12.13
2018-06-09T23:42:21.202Z,14.40
2018-06-09T23:44:26.250Z,13.70
2018-06-09T23:46:31.184Z,16.27
2018-06-09T23:48:36.482Z,11.90
2018-06-09T23:50:41.662Z,15.37
2018-06-09T23:52:47.013Z,12.50
2018-06-09T23:54:51.396Z,14.73
2018-06-09T23:56:56.225Z,12.73
2018-06-09T23:59:01.561Z,14.90
